createdAt,value
2024-01-03T00:05:13.620Z,1.95
2024-01-03T00:10:39.764Z,1.98
2024-01-03T00:16:00.901Z,2.22
2024-01-03T00:21:04.371Z,2.22
2024-01-03T00:26:16.064Z,1.92
2024-01-03T00:31:44.621Z,2.13
2024-01-03T00:36:57.825Z,2.05
2024-01-03T00:42:04.354Z,1.60
2024-01-03T00:47:08.864Z,1.40
2024-01-03T00:52:13.107Z,2.00
2024-01-03T00:57:16.238Z,1.98
2024-01-03T01:02:19.096Z,1.95
2024-01-03T01:07:27.613Z,1.70
2024-01-03T01:12:56.830Z,1.80
2024-01-03T01:17:59.775Z,2.00
2024-01-03T01:23:05.405Z,1.90
2024-01-03T01:28:13.039Z,1.77
2024-01-03T01:33:21.560Z,1.98
2024-01-03T01:38:24.157Z,1.60
2024-01-03T01:43:26.332Z,1.60
2024-01-03T01:53:32.076Z,1.27
2024-01-03T01:58:45.322Z,1.45
2024-01-03T02:05:40.084Z,1.63
2024-01-03T02:10:48.421Z,1.90
2024-01-03T02:15:58.386Z,2.47
2024-01-03T02:21:02.835Z,1.95
2024-01-03T02:26:13.923Z,2.20
2024-01-03T02:36:40.489Z,2.08
2024-01-03T02:42:11.145Z,1.90
2024-01-03T02:47:13.743Z,2.20
2024-01-03T02:52:19.535Z,1.50
2024-01-03T02:57:28.497Z,1.50
2024-01-03T03:02:40.350Z,1.70
2024-01-03T03:07:42.842Z,1.45
2024-01-03T03:12:49.926Z,2.00
2024-01-03T03:18:09.153Z,1.63
2024-01-03T03:23:12.023Z,1.73
2024-01-03T03:28:15.661Z,1.70
2024-01-03T03:33:21.361Z,2.13
2024-01-03T03:38:25.324Z,1.73
2024-01-03T03:43:27.584Z,1.85
2024-01-03T03:53:41.811Z,1.42
2024-01-03T03:58:46.867Z,1.38
2024-01-03T04:03:52.600Z,1.50
2024-01-03T04:08:57.152Z,1.38
2024-01-03T04:14:03.714Z,1.63
2024-01-03T04:19:05.973Z,2.00
2024-01-03T04:24:09.146Z,1.63
2024-01-03T04:29:23.436Z,1.30
2024-01-03T04:34:25.961Z,1.63
2024-01-03T04:44:34.833Z,1.67
2024-01-03T04:49:40.020Z,1.38
2024-01-03T04:54:43.671Z,1.60
2024-01-03T04:59:45.944Z,2.08
2024-01-03T05:04:50.118Z,1.70
2024-01-03T05:09:53.137Z,1.45
2024-01-03T05:14:56.730Z,2.10
2024-01-03T05:19:59.317Z,2.22
2024-01-03T05:25:02.007Z,1.83
2024-01-03T05:30:04.753Z,1.90
2024-01-03T05:35:07.347Z,1.83
2024-01-03T05:40:10.490Z,1.80
2024-01-03T05:45:13.088Z,1.60
2024-01-03T05:50:15.664Z,1.40
2024-01-03T05:55:17.932Z,1.50
2024-01-03T06:05:22.959Z,1.33
2024-01-03T06:10:25.179Z,2.63
2024-01-03T06:15:27.567Z,2.60
2024-01-03T06:20:30.032Z,2.20
2024-01-03T06:25:34.831Z,2.00
2024-01-03T06:30:37.277Z,2.20
2024-01-03T06:35:39.994Z,1.70
2024-01-03T06:45:47.121Z,1.45
2024-01-03T06:50:49.427Z,2.05
2024-01-03T06:55:51.699Z,1.80
2024-01-03T07:05:56.217Z,1.90
2024-01-03T07:11:01.509Z,1.98
2024-01-03T07:16:09.742Z,2.05
2024-01-03T07:21:16.470Z,2.80
2024-01-03T07:26:33.697Z,2.30
2024-01-03T07:31:38.149Z,2.17
2024-01-03T07:36:45.750Z,2.50
2024-01-03T07:41:50.160Z,2.10
2024-01-03T07:47:02.290Z,2.38
2024-01-03T07:52:07.932Z,2.30
2024-01-03T07:57:14.334Z,2.15
2024-01-03T08:02:20.252Z,2.33
2024-01-03T08:07:26.809Z,2.10
2024-01-03T08:12:32.687Z,2.28
2024-01-03T08:17:41.831Z,2.00
2024-01-03T08:22:45.301Z,2.53
2024-01-03T08:28:01.100Z,2.42
2024-01-03T08:33:03.739Z,2.10
2024-01-03T08:38:06.200Z,3.20
2024-01-03T08:43:15.748Z,3.03
2024-01-03T08:48:20.559Z,3.85
2024-01-03T08:53:35.327Z,4.43
2024-01-03T08:58:38.812Z,3.65
2024-01-03T09:03:43.080Z,3.33
2024-01-03T09:08:52.588Z,2.88
2024-01-03T09:14:00.616Z,2.88
2024-01-03T09:19:11.708Z,3.20
2024-01-03T09:24:22.168Z,3.58
2024-01-03T09:29:31.097Z,2.97
2024-01-03T09:34:46.040Z,2.65
2024-01-03T09:39:54.347Z,2.53
2024-01-03T09:44:58.000Z,3.22
2024-01-03T09:50:01.047Z,3.00
2024-01-03T09:55:11.075Z,3.20
2024-01-03T10:00:25.142Z,2.45
2024-01-03T10:05:27.494Z,2.50
2024-01-03T10:10:34.280Z,2.20
2024-01-03T10:15:45.929Z,2.08
2024-01-03T10:20:57.197Z,3.30
2024-01-03T10:31:08.793Z,2.63
2024-01-03T10:36:12.564Z,3.33
2024-01-03T10:41:24.293Z,3.20
2024-01-03T10:46:58.411Z,3.33
2024-01-03T10:52:06.905Z,4.20
2024-01-03T10:57:12.099Z,3.83
2024-01-03T11:02:32.371Z,3.20
2024-01-03T11:08:00.295Z,3.78
2024-01-03T11:13:02.481Z,2.75
2024-01-03T11:18:06.567Z,1.98
2024-01-03T11:23:09.129Z,2.17
2024-01-03T11:28:50.970Z,2.10
2024-01-03T11:33:53.088Z,2.08
2024-01-03T11:39:01.985Z,1.95
2024-01-03T11:44:21.439Z,2.60
2024-01-03T11:49:24.173Z,2.40
2024-01-03T11:54:26.684Z,2.30
2024-01-03T11:59:34.701Z,1.85
2024-01-03T12:04:37.792Z,1.92
2024-01-03T12:09:41.270Z,2.13
2024-01-03T12:14:51.858Z,1.92
2024-01-03T12:20:10.889Z,1.42
2024-01-03T12:25:38.759Z,1.80
2024-01-03T12:30:50.040Z,1.88
2024-01-03T12:35:55.043Z,1.67
2024-01-03T12:41:02.455Z,2.40
2024-01-03T12:46:10.565Z,2.05
2024-01-03T12:51:49.965Z,2.10
2024-01-03T12:56:58.718Z,2.00
2024-01-03T13:02:01.088Z,1.92
2024-01-03T13:07:10.248Z,1.85
2024-01-03T13:12:43.625Z,1.80
2024-01-03T13:17:47.989Z,2.28
2024-01-03T13:23:04.584Z,2.30
2024-01-03T13:28:06.920Z,2.90
2024-01-03T13:33:09.621Z,2.67
2024-01-03T13:38:17.032Z,2.80
2024-01-03T13:43:30.140Z,3.28
2024-01-03T13:48:36.161Z,2.30
2024-01-03T13:54:04.562Z,1.90
2024-01-03T13:59:10.733Z,1.65
2024-01-03T14:04:19.764Z,2.00
2024-01-03T14:09:50.826Z,1.73
2024-01-03T14:14:52.908Z,2.25
2024-01-03T14:19:55.406Z,1.95
2024-01-03T14:25:21.781Z,1.90
2024-01-03T14:30:30.244Z,2.10
2024-01-03T14:35:45.314Z,2.60
2024-01-03T14:40:58.222Z,2.00
2024-01-03T14:46:22.184Z,1.67
2024-01-03T14:51:50.170Z,1.80
2024-01-03T14:57:01.056Z,2.25
2024-01-03T15:02:21.264Z,1.70
2024-01-03T15:12:48.464Z,1.70
2024-01-03T15:17:53.713Z,1.98
2024-01-03T15:23:05.769Z,1.70
2024-01-03T15:33:52.799Z,1.58
2024-01-03T15:39:08.053Z,1.38
2024-01-03T15:44:49.934Z,1.40
2024-01-03T15:50:00.050Z,1.73
2024-01-03T15:55:10.883Z,2.20
2024-01-03T16:00:51.251Z,2.17
2024-01-03T16:05:53.536Z,2.70
2024-01-03T16:10:55.723Z,2.42
2024-01-03T16:21:52.100Z,1.85
2024-01-03T16:27:09.764Z,2.28
2024-01-03T16:32:35.443Z,2.78
2024-01-03T16:37:39.305Z,2.15
2024-01-03T16:42:42.376Z,2.70
2024-01-03T16:47:44.916Z,2.33
2024-01-03T16:52:48.341Z,2.08
2024-01-03T16:57:54.975Z,3.13
2024-01-03T17:02:59.853Z,2.90
2024-01-03T17:08:05.637Z,3.38
2024-01-03T17:13:09.134Z,3.15
2024-01-03T17:18:23.194Z,4.55
2024-01-03T17:23:27.111Z,4.15
2024-01-03T17:28:40.326Z,4.95
2024-01-03T17:33:49.164Z,4.90
2024-01-03T17:38:51.438Z,3.65
2024-01-03T17:44:12.119Z,3.30
2024-01-03T17:49:41.947Z,3.13
2024-01-03T18:00:27.477Z,2.28
2024-01-03T18:05:42.994Z,2.60
2024-01-03T18:11:04.449Z,2.80
2024-01-03T18:16:14.162Z,1.65
2024-01-03T18:21:20.659Z,2.15
2024-01-03T18:26:30.972Z,2.03
2024-01-03T18:31:48.859Z,3.07
2024-01-03T18:36:52.032Z,2.10
2024-01-03T18:42:02.821Z,2.92
2024-01-03T18:47:10.725Z,2.70
2024-01-03T18:52:17.559Z,3.13
2024-01-03T18:57:23.850Z,3.90
2024-01-03T19:02:30.183Z,3.13
2024-01-03T19:07:33.612Z,3.97
2024-01-03T19:12:37.503Z,3.35
2024-01-03T19:17:40.110Z,3.58
2024-01-03T19:22:44.791Z,2.80
2024-01-03T19:27:49.554Z,3.40
2024-01-03T19:32:51.961Z,3.40
2024-01-03T19:37:54.341Z,3.17
2024-01-03T19:42:58.647Z,2.42
2024-01-03T19:48:01.449Z,2.67
2024-01-03T19:53:07.957Z,2.50
2024-01-03T19:58:12.947Z,2.40
2024-01-03T20:03:15.179Z,2.92
2024-01-03T20:08:17.513Z,2.55
2024-01-03T20:13:31.072Z,2.80
2024-01-03T20:18:39.127Z,3.05
2024-01-03T20:23:47.597Z,4.10
2024-01-03T20:28:52.728Z,2.90
2024-01-03T20:33:57.994Z,2.60
2024-01-03T20:39:08.099Z,2.22
2024-01-03T20:44:11.212Z,2.10
2024-01-03T20:49:14.365Z,2.58
2024-01-03T20:54:20.175Z,2.85
2024-01-03T20:59:54.820Z,2.80
2024-01-03T21:04:58.515Z,2.10
2024-01-03T21:10:05.488Z,1.98
2024-01-03T21:15:23.092Z,1.90
2024-01-03T21:20:25.745Z,2.50
2024-01-03T21:25:35.480Z,2.30
2024-01-03T21:36:45.323Z,2.40
2024-01-03T21:41:49.006Z,2.85
2024-01-03T21:46:51.385Z,2.35
2024-01-03T21:51:56.660Z,2.42
2024-01-03T21:56:59.122Z,3.50
2024-01-03T22:02:04.880Z,2.63
2024-01-03T22:07:07.205Z,3.20
2024-01-03T22:12:09.497Z,3.50
2024-01-03T22:17:12.475Z,2.88
2024-01-03T22:22:15.359Z,3.58
2024-01-03T22:27:17.553Z,2.63
2024-01-03T22:32:19.691Z,2.78
2024-01-03T22:37:21.961Z,3.05
2024-01-03T22:42:24.940Z,3.13
2024-01-03T22:47:27.267Z,4.20
2024-01-03T22:52:29.428Z,3.75
2024-01-03T22:57:32.006Z,3.90
2024-01-03T23:02:34.701Z,4.50
2024-01-03T23:07:36.918Z,4.00
2024-01-03T23:12:39.150Z,4.88
2024-01-03T23:17:41.759Z,4.72
2024-01-03T23:22:47.419Z,4.80
2024-01-03T23:27:53.284Z,4.90
2024-01-03T23:32:58.205Z,4.53
2024-01-03T23:38:05.708Z,5.13
2024-01-03T23:43:08.290Z,4.63
2024-01-03T23:48:10.934Z,4.75
2024-01-03T23:53:13.291Z,5.00
2024-01-03T23:58:15.807Z,4.25
